Time;durP1;ratioP1;P1;durP2;ratioP2;P2;SDS_P1;SDS_P2;PMS_P1;PMS_P2;Temp;Humidity;BMP_temperature;BMP_pressure;BME280_temperature;BME280_humidity;BME280_pressure;Samples;Min_cycle;Max_cycle;Signal;HPM_P1;HPM_P2
2021/12/22 00:01:12;;;;;;;;;;;-2.90;99.90;;;;;;5033390;28;19921;-72
2021/12/22 00:03:47;;;;;;;;;;;-2.90;99.90;;;;;;5051066;28;19920;-72
2021/12/22 00:06:21;;;;;;;;;;;-3.00;99.90;;;;;;5033626;28;20023;-73
2021/12/22 00:08:53;;;;;;;;;;;-3.10;99.90;;;;;;5033101;28;19921;-74
2021/12/22 00:11:20;;;;;;;;;;;-3.10;99.90;;;;;;5051393;28;20038;-71
2021/12/22 00:13:46;;;;;;;;;;;-3.10;99.90;;;;;;5033108;28;20389;-71
2021/12/22 00:16:13;;;;;;;;;;;-3.20;99.90;;;;;;5051232;28;19921;-74
2021/12/22 00:18:45;;;;;;;;;;;-3.20;99.90;;;;;;5051350;28;19931;-72
2021/12/22 00:21:11;;;;;;;;;;;-3.30;99.90;;;;;;5035890;28;20016;-73
2021/12/22 00:23:38;;;;;;;;;;;-3.30;99.90;;;;;;5052400;28;19921;-73
2021/12/22 00:26:10;;;;;;;;;;;-3.30;99.90;;;;;;5037410;28;19945;-74
2021/12/22 00:28:36;;;;;;;;;;;-3.40;99.90;;;;;;5054185;28;19921;-72
2021/12/22 00:31:10;;;;;;;;;;;-3.40;99.90;;;;;;5055298;28;20300;-72
2021/12/22 00:33:50;;;;;;;;;;;-3.50;99.90;;;;;;5036907;28;19927;-73
2021/12/22 00:36:23;;;;;;;;;;;-3.50;99.90;;;;;;5036647;28;20288;-72
2021/12/22 00:38:50;;;;;;;;;;;-3.50;99.90;;;;;;5001154;28;19921;-72
2021/12/22 00:41:17;;;;;;;;;;;-3.60;99.90;;;;;;5035158;28;19927;-74
2021/12/22 00:43:50;;;;;;;;;;;-3.60;99.90;;;;;;5034831;28;19947;-72
2021/12/22 00:46:17;;;;;;;;;;;-3.60;99.90;;;;;;5031844;28;19920;-72
2021/12/22 00:48:48;;;;;;;;;;;-3.60;99.90;;;;;;5021455;28;19927;-72
2021/12/22 00:51:21;;;;;;;;;;;-3.60;99.90;;;;;;5037260;28;19927;-72
2021/12/22 00:53:47;;;;;;;;;;;-3.70;99.90;;;;;;5036358;28;19920;-72
2021/12/22 00:56:19;;;;;;;;;;;-3.70;99.90;;;;;;5036888;28;19921;-71
2021/12/22 00:58:50;;;;;;;;;;;-3.70;99.90;;;;;;5037898;28;20015;-72
2021/12/22 01:01:22;;;;;;;;;;;-3.70;99.90;;;;;;5036948;28;20282;-73
2021/12/22 01:03:56;;;;;;;;;;;-3.60;99.90;;;;;;5054327;28;19935;-72
2021/12/22 01:06:28;;;;;;;;;;;-3.60;99.90;;;;;;5020947;28;19921;-72
2021/12/22 01:08:59;;;;;;;;;;;-3.60;99.90;;;;;;5054587;28;20023;-72
2021/12/22 01:11:32;;;;;;;;;;;-3.60;99.90;;;;;;5036377;28;20272;-72
2021/12/22 01:14:03;;;;;;;;;;;-3.70;99.90;;;;;;5036334;28;20007;-72
2021/12/22 01:16:35;;;;;;;;;;;-3.70;99.90;;;;;;5054337;28;19924;-73
2021/12/22 01:19:13;;;;;;;;;;;-3.70;99.90;;;;;;5020940;28;19966;-72
2021/12/22 01:22:05;;;;;;;;;;;-3.70;99.90;;;;;;5054147;28;19927;-71
2021/12/22 01:24:37;;;;;;;;;;;-3.70;99.90;;;;;;5037066;28;19921;-72
2021/12/22 01:27:10;;;;;;;;;;;-3.70;99.90;;;;;;5037235;28;20288;-72
2021/12/22 01:29:38;;;;;;;;;;;-3.70;99.90;;;;;;5036435;28;19928;-73
2021/12/22 01:32:12;;;;;;;;;;;-3.80;99.90;;;;;;5019321;28;19920;-72
2021/12/22 01:34:44;;;;;;;;;;;-3.80;99.90;;;;;;5053774;28;19927;-72
2021/12/22 01:37:16;;;;;;;;;;;-3.80;99.90;;;;;;5054086;28;19924;-72
2021/12/22 01:39:46;;;;;;;;;;;-3.80;99.90;;;;;;5054209;28;20420;-71
2021/12/22 01:42:18;;;;;;;;;;;-3.90;99.90;;;;;;5035896;28;19921;-72
2021/12/22 01:50:45;;;;;;;;;;;-4.00;99.90;;;;;;5034276;28;20002;-72
2021/12/22 01:53:19;;;;;;;;;;;-4.00;99.90;;;;;;5035295;28;19964;-73
2021/12/22 01:55:59;;;;;;;;;;;-4.00;99.90;;;;;;5053532;28;19921;-73
2021/12/22 01:58:31;;;;;;;;;;;-4.00;99.90;;;;;;5035809;28;19927;-73
2021/12/22 02:01:00;;;;;;;;;;;-4.00;99.90;;;;;;5053395;28;20003;-74
2021/12/22 02:03:33;;;;;;;;;;;-4.10;99.90;;;;;;5019125;28;19921;-72
2021/12/22 02:06:05;;;;;;;;;;;-4.10;99.90;;;;;;5035854;28;19921;-72
2021/12/22 02:08:33;;;;;;;;;;;-4.10;99.90;;;;;;5035035;28;20003;-72
2021/12/22 02:11:05;;;;;;;;;;;-4.10;99.90;;;;;;5035637;28;20608;-72
2021/12/22 02:13:41;;;;;;;;;;;-4.10;99.90;;;;;;5035931;28;19921;-72
2021/12/22 02:16:13;;;;;;;;;;;-4.10;99.90;;;;;;5035342;28;20020;-72
2021/12/22 02:18:48;;;;;;;;;;;-4.10;99.90;;;;;;4999259;28;20423;-72
2021/12/22 02:21:21;;;;;;;;;;;-4.10;99.90;;;;;;5033217;28;19921;-73
2021/12/22 02:23:48;;;;;;;;;;;-4.20;99.90;;;;;;5015048;28;19963;-73
2021/12/22 02:26:22;;;;;;;;;;;-4.20;99.90;;;;;;5009119;28;19921;-72
2021/12/22 02:29:00;;;;;;;;;;;-4.20;99.90;;;;;;5051346;28;19952;-74
2021/12/22 02:31:27;;;;;;;;;;;-4.30;99.90;;;;;;5034862;28;19920;-72
2021/12/22 02:33:59;;;;;;;;;;;-4.30;99.90;;;;;;5035050;28;20347;-73
2021/12/22 02:36:37;;;;;;;;;;;-4.30;99.90;;;;;;5034717;28;19927;-72
2021/12/22 02:39:09;;;;;;;;;;;-4.40;99.90;;;;;;5015210;28;19925;-72
2021/12/22 02:41:40;;;;;;;;;;;-4.30;99.90;;;;;;5032811;28;19960;-72
2021/12/22 02:44:09;;;;;;;;;;;-4.40;99.90;;;;;;5014071;28;19928;-72
2021/12/22 02:46:36;;;;;;;;;;;-4.30;99.90;;;;;;5014602;28;19947;-72
2021/12/22 02:49:08;;;;;;;;;;;-4.30;99.90;;;;;;5032139;28;19920;-72
2021/12/22 02:51:41;;;;;;;;;;;-4.30;99.90;;;;;;5015481;28;19925;-71
2021/12/22 02:54:20;;;;;;;;;;;-4.30;99.90;;;;;;5031778;28;20377;-72
2021/12/22 02:56:57;;;;;;;;;;;-4.30;99.90;;;;;;5031459;28;19925;-73
2021/12/22 03:02:24;;;;;;;;;;;-4.30;99.90;;;;;;5025107;28;19927;-74
2021/12/22 03:04:57;;;;;;;;;;;-4.30;99.90;;;;;;5052356;28;20389;-72
2021/12/22 03:07:30;;;;;;;;;;;-4.30;99.90;;;;;;5052389;28;20383;-72
2021/12/22 03:10:07;;;;;;;;;;;-4.40;99.90;;;;;;5034495;28;19921;-73
2021/12/22 03:12:36;;;;;;;;;;;-4.40;99.90;;;;;;5034142;28;19982;-73
2021/12/22 03:15:05;;;;;;;;;;;-4.40;99.90;;;;;;5052186;28;19927;-73
2021/12/22 03:17:31;;;;;;;;;;;-4.40;99.90;;;;;;5034256;28;20022;-73
2021/12/22 03:19:58;;;;;;;;;;;-4.40;99.90;;;;;;5034215;28;20363;-73
2021/12/22 03:22:25;;;;;;;;;;;-4.50;99.90;;;;;;5034055;28;20055;-73
2021/12/22 03:24:52;;;;;;;;;;;-4.50;99.90;;;;;;5051993;28;19967;-73
2021/12/22 03:27:24;;;;;;;;;;;-4.50;99.90;;;;;;5034971;28;19921;-73
2021/12/22 03:29:56;;;;;;;;;;;-4.60;99.90;;;;;;5034325;28;19931;-73
2021/12/22 03:32:27;;;;;;;;;;;-4.60;99.90;;;;;;5033674;28;19920;-74
2021/12/22 03:34:54;;;;;;;;;;;-4.70;99.90;;;;;;5051836;28;20027;-73
2021/12/22 03:37:23;;;;;;;;;;;-4.70;99.90;;;;;;5034019;28;19967;-73
2021/12/22 03:39:55;;;;;;;;;;;-4.70;99.90;;;;;;5034038;28;19947;-73
2021/12/22 03:42:26;;;;;;;;;;;-4.80;99.90;;;;;;5051071;28;20409;-73
2021/12/22 03:44:53;;;;;;;;;;;-4.90;99.90;;;;;;5033901;28;20456;-73
2021/12/22 03:47:21;;;;;;;;;;;-4.90;99.90;;;;;;5051669;28;19921;-73
2021/12/22 03:49:47;;;;;;;;;;;-4.90;99.90;;;;;;5033693;28;19921;-73
2021/12/22 03:52:19;;;;;;;;;;;-5.00;99.90;;;;;;5051350;28;19960;-73
2021/12/22 03:54:58;;;;;;;;;;;-5.00;99.90;;;;;;5050922;28;19920;-73
2021/12/22 03:57:29;;;;;;;;;;;-5.10;99.90;;;;;;5034574;28;19920;-73
2021/12/22 04:00:03;;;;;;;;;;;-5.10;99.90;;;;;;5033535;28;19927;-73
2021/12/22 04:02:30;;;;;;;;;;;-5.10;99.90;;;;;;5033505;28;19956;-73
2021/12/22 04:05:03;;;;;;;;;;;-5.10;99.90;;;;;;5017879;28;19927;-73
2021/12/22 04:07:31;;;;;;;;;;;-5.20;99.90;;;;;;5033771;28;19960;-73
2021/12/22 04:09:58;;;;;;;;;;;-5.20;99.90;;;;;;5033866;28;20011;-73
2021/12/22 04:12:32;;;;;;;;;;;-5.20;99.90;;;;;;5033007;28;20393;-73
2021/12/22 04:15:04;;;;;;;;;;;-5.10;99.90;;;;;;5051092;28;19998;-73
2021/12/22 04:17:36;;;;;;;;;;;-5.10;99.90;;;;;;5017595;28;20023;-73
2021/12/22 04:20:04;;;;;;;;;;;-5.10;99.90;;;;;;5033686;28;20206;-73
2021/12/22 04:22:37;;;;;;;;;;;-5.20;99.90;;;;;;5032949;28;20446;-73
2021/12/22 04:25:06;;;;;;;;;;;-5.20;99.90;;;;;;5051295;28;20389;-73
2021/12/22 04:27:33;;;;;;;;;;;-5.20;99.90;;;;;;5051192;28;19927;-73
2021/12/22 04:30:06;;;;;;;;;;;-5.20;99.90;;;;;;5034418;28;19921;-73
2021/12/22 04:32:32;;;;;;;;;;;-5.20;99.90;;;;;;5033080;28;19927;-73
2021/12/22 04:35:00;;;;;;;;;;;-5.20;99.90;;;;;;5051208;28;20343;-73
2021/12/22 04:37:32;;;;;;;;;;;-5.20;99.90;;;;;;5034263;28;19921;-73
2021/12/22 04:39:59;;;;;;;;;;;-5.30;99.90;;;;;;5033421;28;19921;-73
2021/12/22 04:42:30;;;;;;;;;;;-5.30;99.90;;;;;;5050700;28;19921;-73
2021/12/22 04:45:05;;;;;;;;;;;-5.30;99.90;;;;;;5034274;28;19921;-73
2021/12/22 04:47:34;;;;;;;;;;;-5.40;99.90;;;;;;5033371;28;20335;-73
2021/12/22 04:50:10;;;;;;;;;;;-5.40;99.90;;;;;;5032881;28;19963;-73
2021/12/22 04:52:50;;;;;;;;;;;-5.40;99.90;;;;;;5013404;28;19967;-73
2021/12/22 04:55:22;;;;;;;;;;;-5.40;99.90;;;;;;5030616;28;20385;-73
2021/12/22 04:57:57;;;;;;;;;;;-5.40;99.90;;;;;;5012741;28;19921;-73
2021/12/22 05:00:26;;;;;;;;;;;-5.40;99.90;;;;;;5030502;28;19921;-73
2021/12/22 05:02:54;;;;;;;;;;;-5.40;99.90;;;;;;5020758;28;19925;-73
2021/12/22 05:05:26;;;;;;;;;;;-5.40;99.90;;;;;;5034171;28;20400;-73
2021/12/22 05:07:57;;;;;;;;;;;-5.40;99.90;;;;;;5020381;28;19924;-73
2021/12/22 05:10:29;;;;;;;;;;;-5.40;99.90;;;;;;5053935;28;19921;-72
2021/12/22 05:12:56;;;;;;;;;;;-5.40;99.90;;;;;;5035358;28;19921;-73
2021/12/22 05:15:36;;;;;;;;;;;-5.40;99.90;;;;;;5036765;28;19925;-73
2021/12/22 05:18:20;;;;;;;;;;;-5.40;99.90;;;;;;5035041;28;19920;-74
2021/12/22 05:20:52;;;;;;;;;;;-5.50;99.90;;;;;;5036916;28;19970;-73
2021/12/22 05:23:24;;;;;;;;;;;-5.50;99.90;;;;;;5055462;28;19921;-73
2021/12/22 05:25:56;;;;;;;;;;;-5.50;99.90;;;;;;5023509;28;19974;-73
2021/12/22 05:28:24;;;;;;;;;;;-5.50;99.90;;;;;;5039945;28;19920;-73
2021/12/22 05:30:50;;;;;;;;;;;-5.50;99.90;;;;;;5026352;28;19921;-73
2021/12/22 05:33:17;;;;;;;;;;;-5.60;99.90;;;;;;5045584;28;19924;-73
2021/12/22 05:35:44;;;;;;;;;;;-5.60;99.90;;;;;;5054651;28;19921;-73
2021/12/22 05:38:11;;;;;;;;;;;-5.60;99.90;;;;;;5054662;28;20473;-73
2021/12/22 05:40:42;;;;;;;;;;;-5.60;99.90;;;;;;5054787;28;19920;-72
2021/12/22 05:43:09;;;;;;;;;;;-5.60;99.90;;;;;;5053710;28;20015;-73
2021/12/22 05:45:41;;;;;;;;;;;-5.60;99.90;;;;;;5037432;28;19921;-73
2021/12/22 05:48:12;;;;;;;;;;;-5.70;99.90;;;;;;5036293;28;20005;-73
2021/12/22 05:50:43;;;;;;;;;;;-5.70;99.90;;;;;;5055986;28;19972;-74
2021/12/22 05:53:15;;;;;;;;;;;-5.80;99.90;;;;;;5054158;28;19920;-73
2021/12/22 05:55:42;;;;;;;;;;;-5.80;99.90;;;;;;5033379;28;19955;-73
2021/12/22 05:58:14;;;;;;;;;;;-5.80;99.90;;;;;;5052972;28;20403;-73
2021/12/22 06:00:41;;;;;;;;;;;-5.80;99.90;;;;;;5052871;28;19920;-73
2021/12/22 06:03:12;;;;;;;;;;;-5.90;99.90;;;;;;5023125;28;20370;-73
2021/12/22 06:05:44;;;;;;;;;;;-5.90;99.90;;;;;;5033366;28;19920;-73
2021/12/22 06:08:11;;;;;;;;;;;-5.90;99.90;;;;;;5053244;28;20304;-73
2021/12/22 06:10:38;;;;;;;;;;;-5.90;99.90;;;;;;5044150;28;19939;-73
2021/12/22 06:13:12;;;;;;;;;;;-6.00;99.90;;;;;;5034120;28;19920;-73
2021/12/22 06:15:43;;;;;;;;;;;-5.90;99.90;;;;;;5017558;28;20384;-73
2021/12/22 06:18:15;;;;;;;;;;;-5.90;99.90;;;;;;5055394;28;20383;-73
2021/12/22 06:20:47;;;;;;;;;;;-5.90;99.90;;;;;;5056083;28;19920;-73
2021/12/22 06:23:18;;;;;;;;;;;-5.90;99.90;;;;;;5035415;28;19920;-73
2021/12/22 06:25:50;;;;;;;;;;;-5.90;99.90;;;;;;5035743;28;19920;-73
2021/12/22 06:28:22;;;;;;;;;;;-5.90;99.90;;;;;;5047402;28;19952;-73
2021/12/22 06:30:53;;;;;;;;;;;-5.90;99.90;;;;;;5048128;28;19921;-73
2021/12/22 06:33:25;;;;;;;;;;;-5.80;99.90;;;;;;5034920;28;19921;-73
2021/12/22 06:35:57;;;;;;;;;;;-5.90;99.90;;;;;;5035248;28;19927;-73
2021/12/22 06:38:28;;;;;;;;;;;-5.90;99.90;;;;;;5035598;28;19920;-73
2021/12/22 06:41:00;;;;;;;;;;;-5.90;99.90;;;;;;5033437;28;20007;-73
2021/12/22 06:43:32;;;;;;;;;;;-5.90;99.90;;;;;;5018947;28;20331;-73
2021/12/22 06:45:59;;;;;;;;;;;-5.90;99.90;;;;;;5035010;28;19927;-73
2021/12/22 06:48:30;;;;;;;;;;;-5.90;99.90;;;;;;5034823;28;19944;-73
2021/12/22 06:51:02;;;;;;;;;;;-5.90;99.90;;;;;;5053730;28;20291;-73
2021/12/22 06:53:34;;;;;;;;;;;-6.00;99.90;;;;;;5053498;28;20404;-73
2021/12/22 06:56:01;;;;;;;;;;;-6.00;99.90;;;;;;5054423;28;19920;-73
2021/12/22 06:58:27;;;;;;;;;;;-6.00;99.90;;;;;;5035324;28;19952;-73
2021/12/22 07:01:00;;;;;;;;;;;-6.00;99.90;;;;;;5018994;28;19920;-73
2021/12/22 07:03:31;;;;;;;;;;;-6.00;99.90;;;;;;5018442;28;20368;-73
2021/12/22 07:05:58;;;;;;;;;;;-6.00;99.90;;;;;;5034658;28;19959;-73
2021/12/22 07:08:30;;;;;;;;;;;-6.00;99.90;;;;;;5052607;28;19942;-73
2021/12/22 07:11:02;;;;;;;;;;;-6.00;99.90;;;;;;5035312;28;19921;-73
2021/12/22 07:13:33;;;;;;;;;;;-6.00;99.90;;;;;;5033145;28;19974;-73
2021/12/22 07:16:00;;;;;;;;;;;-6.00;99.90;;;;;;5034154;28;19920;-73
2021/12/22 07:18:32;;;;;;;;;;;-6.10;99.90;;;;;;5034098;28;19942;-73
2021/12/22 07:21:03;;;;;;;;;;;-6.10;99.90;;;;;;5034792;28;19920;-73
2021/12/22 07:23:30;;;;;;;;;;;-6.20;99.90;;;;;;5051350;28;19920;-73
2021/12/22 07:25:57;;;;;;;;;;;-6.20;99.90;;;;;;5034180;28;20003;-73
2021/12/22 07:28:24;;;;;;;;;;;-6.20;99.90;;;;;;5034097;28;20263;-73
2021/12/22 07:30:55;;;;;;;;;;;-6.20;99.90;;;;;;5034857;28;19927;-73
2021/12/22 07:33:22;;;;;;;;;;;-6.20;99.90;;;;;;5033337;28;20387;-73
2021/12/22 07:35:59;;;;;;;;;;;-6.20;99.90;;;;;;5051620;28;19931;-73
2021/12/22 07:38:30;;;;;;;;;;;-6.20;99.90;;;;;;5050750;28;19920;-73
2021/12/22 07:40:59;;;;;;;;;;;-6.20;99.90;;;;;;5033773;28;19960;-73
2021/12/22 07:43:31;;;;;;;;;;;-6.20;99.90;;;;;;5034001;28;19921;-73
2021/12/22 07:45:58;;;;;;;;;;;-6.20;99.90;;;;;;5033798;28;19924;-72
2021/12/22 07:48:29;;;;;;;;;;;-6.20;99.90;;;;;;5034621;28;19927;-72
2021/12/22 07:50:56;;;;;;;;;;;-6.30;99.90;;;;;;5033706;28;19920;-72
2021/12/22 07:53:23;;;;;;;;;;;-6.30;99.90;;;;;;5051025;28;19927;-72
2021/12/22 07:55:55;;;;;;;;;;;-6.30;99.90;;;;;;5017829;28;19921;-72
2021/12/22 07:58:26;;;;;;;;;;;-6.30;99.90;;;;;;5017878;28;19920;-72
2021/12/22 08:00:58;;;;;;;;;;;-6.30;99.90;;;;;;5034579;28;19924;-73
2021/12/22 08:03:25;;;;;;;;;;;-6.20;99.90;;;;;;5051060;28;19921;-73
2021/12/22 08:05:52;;;;;;;;;;;-6.20;99.90;;;;;;5033623;28;19920;-73
2021/12/22 08:08:24;;;;;;;;;;;-6.20;99.90;;;;;;5033475;28;19921;-73
2021/12/22 08:10:51;;;;;;;;;;;-6.10;99.90;;;;;;5033628;28;20011;-72
2021/12/22 08:13:17;;;;;;;;;;;-6.10;99.90;;;;;;5016726;28;19927;-73
2021/12/22 08:15:44;;;;;;;;;;;-6.00;99.90;;;;;;5033590;28;19943;-73
2021/12/22 08:18:16;;;;;;;;;;;-6.00;99.90;;;;;;5017604;28;19924;-73
2021/12/22 08:20:47;;;;;;;;;;;-5.90;99.90;;;;;;5034313;28;19927;-73
2021/12/22 08:23:19;;;;;;;;;;;-5.90;99.90;;;;;;5050729;28;19927;-73
2021/12/22 08:25:51;;;;;;;;;;;-5.80;99.90;;;;;;5051164;28;19928;-73
2021/12/22 08:28:22;;;;;;;;;;;-5.80;99.90;;;;;;5017855;28;19920;-73
2021/12/22 08:30:49;;;;;;;;;;;-5.70;99.90;;;;;;5033528;28;19942;-73
2021/12/22 08:33:24;;;;;;;;;;;-5.60;99.90;;;;;;5050682;28;19921;-73
2021/12/22 08:38:55;;;;;;;;;;;-5.50;99.90;;;;;;5051099;28;19921;-73
2021/12/22 08:41:23;;;;;;;;;;;-5.50;99.90;;;;;;5035573;28;19920;-73
2021/12/22 08:43:51;;;;;;;;;;;-5.50;99.90;;;;;;5036854;28;19920;-73
2021/12/22 08:46:23;;;;;;;;;;;-5.50;99.90;;;;;;5021438;28;20015;-73
2021/12/22 08:48:55;;;;;;;;;;;-5.50;99.90;;;;;;5037890;28;19921;-74
2021/12/22 08:51:22;;;;;;;;;;;-5.40;99.90;;;;;;5054996;28;19920;-73
2021/12/22 08:53:49;;;;;;;;;;;-5.40;99.90;;;;;;5036820;28;20402;-73
2021/12/22 08:56:21;;;;;;;;;;;-5.30;99.90;;;;;;5037833;28;20308;-73
2021/12/22 08:58:48;;;;;;;;;;;-5.30;99.90;;;;;;5054794;28;19921;-73
2021/12/22 09:01:15;;;;;;;;;;;-5.20;99.90;;;;;;5036906;28;19920;-73
2021/12/22 09:03:41;;;;;;;;;;;-5.20;99.90;;;;;;5054034;28;19920;-73
2021/12/22 09:06:08;;;;;;;;;;;-5.20;99.90;;;;;;5036816;28;20024;-73
2021/12/22 09:08:34;;;;;;;;;;;-5.10;99.90;;;;;;5036383;28;20296;-73
2021/12/22 09:11:01;;;;;;;;;;;-5.10;99.90;;;;;;5054210;28;20015;-73
2021/12/22 09:13:28;;;;;;;;;;;-4.90;99.90;;;;;;5053910;28;19924;-74
2021/12/22 09:15:59;;;;;;;;;;;-4.90;99.90;;;;;;5054297;28;19920;-73
2021/12/22 09:18:31;;;;;;;;;;;-4.90;99.90;;;;;;5054317;28;20394;-73
2021/12/22 09:20:58;;;;;;;;;;;-4.80;99.90;;;;;;5036237;28;20019;-73
2021/12/22 09:23:29;;;;;;;;;;;-4.70;99.90;;;;;;5053853;28;19927;-73
2021/12/22 09:26:01;;;;;;;;;;;-4.70;99.90;;;;;;5033963;28;19921;-73
2021/12/22 09:28:28;;;;;;;;;;;-4.60;99.90;;;;;;5034993;28;20023;-73
2021/12/22 09:30:59;;;;;;;;;;;-4.50;99.90;;;;;;5035609;28;19920;-73
2021/12/22 09:33:32;;;;;;;;;;;-4.50;99.90;;;;;;5035335;28;19963;-73
2021/12/22 09:35:59;;;;;;;;;;;-4.40;99.90;;;;;;5036133;28;19921;-73
2021/12/22 09:38:31;;;;;;;;;;;-4.40;99.90;;;;;;5054029;28;19927;-73
2021/12/22 09:41:03;;;;;;;;;;;-4.10;99.90;;;;;;5036172;28;20006;-73
2021/12/22 09:43:35;;;;;;;;;;;-3.90;99.90;;;;;;5036524;28;19921;-73
2021/12/22 09:46:07;;;;;;;;;;;-3.90;99.90;;;;;;5036259;28;19927;-73
2021/12/22 09:53:38;;;;;;;;;;;-3.80;99.90;;;;;;5052314;28;20445;-73
2021/12/22 09:56:11;;;;;;;;;;;-3.80;99.90;;;;;;5036668;28;19927;-73
2021/12/22 09:58:39;;;;;;;;;;;-3.80;99.90;;;;;;5035657;28;19921;-73
2021/12/22 10:01:06;;;;;;;;;;;-3.70;99.90;;;;;;5053838;28;19927;-73
2021/12/22 10:03:38;;;;;;;;;;;-3.70;99.90;;;;;;5053382;28;19920;-73
2021/12/22 10:06:05;;;;;;;;;;;-3.70;99.90;;;;;;5035823;28;19921;-73
2021/12/22 10:08:32;;;;;;;;;;;-3.80;99.90;;;;;;5035757;28;20396;-73
2021/12/22 10:11:07;;;;;;;;;;;-3.80;99.90;;;;;;5036451;28;20372;-73
2021/12/22 10:13:33;;;;;;;;;;;-3.80;99.90;;;;;;5035295;28;19984;-73
2021/12/22 10:16:08;;;;;;;;;;;-3.80;99.90;;;;;;5052358;28;20398;-73
2021/12/22 10:18:35;;;;;;;;;;;-3.70;99.90;;;;;;5035577;28;19948;-73
2021/12/22 10:21:12;;;;;;;;;;;-3.70;99.90;;;;;;5035537;28;19920;-73
2021/12/22 10:23:49;;;;;;;;;;;-3.60;99.90;;;;;;5035813;28;19927;-73
2021/12/22 10:26:17;;;;;;;;;;;-3.60;99.90;;;;;;5053284;28;20381;-73
2021/12/22 10:28:53;;;;;;;;;;;-3.50;99.90;;;;;;5035422;28;19947;-73
2021/12/22 10:31:40;;;;;;;;;;;-3.40;99.90;;;;;;5035169;28;19962;-73
2021/12/22 10:34:09;;;;;;;;;;;-3.40;99.90;;;;;;5034889;28;19927;-74
2021/12/22 10:36:43;;;;;;;;;;;-3.30;99.90;;;;;;5052962;28;19920;-73
2021/12/22 10:39:17;;;;;;;;;;;-3.30;99.90;;;;;;5052850;28;19921;-71
2021/12/22 10:41:49;;;;;;;;;;;-3.30;99.90;;;;;;5036128;28;20301;-72
2021/12/22 10:44:21;;;;;;;;;;;-3.20;99.90;;;;;;5050646;28;19921;-72
2021/12/22 10:46:48;;;;;;;;;;;-3.20;99.90;;;;;;5034785;28;19946;-74
2021/12/22 10:49:19;;;;;;;;;;;-3.20;99.90;;;;;;5035002;28;19958;-72
2021/12/22 10:52:02;;;;;;;;;;;-3.30;99.90;;;;;;5052864;28;19920;-72
2021/12/22 10:54:38;;;;;;;;;;;-3.30;99.90;;;;;;5035409;28;20270;-71
2021/12/22 10:57:11;;;;;;;;;;;-3.20;99.90;;;;;;5052492;28;19921;-72
2021/12/22 10:59:45;;;;;;;;;;;-3.10;99.90;;;;;;5052542;28;19934;-72
2021/12/22 11:02:22;;;;;;;;;;;-3.10;99.90;;;;;;5034515;28;20308;-73
2021/12/22 11:04:49;;;;;;;;;;;-3.10;99.90;;;;;;5034262;28;19931;-74
2021/12/22 11:07:24;;;;;;;;;;;-3.10;99.90;;;;;;5034687;28;20026;-73
2021/12/22 11:09:51;;;;;;;;;;;-3.10;99.90;;;;;;5034616;28;19927;-72
2021/12/22 11:12:36;;;;;;;;;;;-3.10;99.90;;;;;;5018405;28;19928;-72
2021/12/22 11:15:22;;;;;;;;;;;-3.10;99.90;;;;;;5034482;28;19927;-73
2021/12/22 11:17:49;;;;;;;;;;;-3.20;99.90;;;;;;5034406;28;20403;-72
2021/12/22 11:20:16;;;;;;;;;;;-3.00;99.90;;;;;;5034437;28;20324;-72
2021/12/22 11:25:26;;;;;;;;;;;-3.10;99.90;;;;;;5034303;28;20385;-72
2021/12/22 11:27:58;;;;;;;;;;;-3.20;99.90;;;;;;5034968;28;19927;-71
2021/12/22 11:30:27;;;;;;;;;;;-3.40;99.90;;;;;;5034342;28;19927;-73
2021/12/22 11:32:59;;;;;;;;;;;-3.50;99.90;;;;;;5033583;28;19925;-72
2021/12/22 11:35:25;;;;;;;;;;;-3.50;99.90;;;;;;5034040;28;20437;-73
2021/12/22 11:37:57;;;;;;;;;;;-3.40;99.90;;;;;;5015618;28;19925;-74
2021/12/22 11:40:25;;;;;;;;;;;-3.30;99.90;;;;;;5040308;28;20306;-73
2021/12/22 11:42:58;;;;;;;;;;;-3.30;99.90;;;;;;5026763;28;19987;-71
2021/12/22 11:45:26;;;;;;;;;;;-3.20;99.90;;;;;;5014523;28;20016;-73
2021/12/22 11:47:53;;;;;;;;;;;-3.10;99.90;;;;;;5035330;28;20008;-71
2021/12/22 11:50:21;;;;;;;;;;;-3.00;99.90;;;;;;5033744;28;20292;-73
2021/12/22 11:52:59;;;;;;;;;;;-3.00;99.90;;;;;;5032983;28;19921;-72
2021/12/22 11:55:27;;;;;;;;;;;-2.90;99.90;;;;;;5033739;28;20311;-73
2021/12/22 11:58:11;;;;;;;;;;;-2.70;99.90;;;;;;5050714;28;20011;-72
2021/12/22 12:00:39;;;;;;;;;;;-2.70;99.90;;;;;;5051254;28;20007;-72
2021/12/22 12:03:20;;;;;;;;;;;-2.60;99.90;;;;;;5041233;28;19921;-73
2021/12/22 12:06:06;;;;;;;;;;;-2.60;99.90;;;;;;5012221;28;20300;-73
2021/12/22 12:08:40;;;;;;;;;;;-2.50;99.90;;;;;;5013777;28;20009;-73
2021/12/22 12:11:15;;;;;;;;;;;-2.50;99.90;;;;;;5027887;28;19920;-73
2021/12/22 12:22:17;;;;;;;;;;;-2.50;99.90;;;;;;5042834;28;20023;-72
2021/12/22 12:24:48;;;;;;;;;;;-2.40;99.90;;;;;;5012991;28;19939;-72
2021/12/22 12:27:29;;;;;;;;;;;-2.40;99.90;;;;;;5013024;28;19927;-74
2021/12/22 12:30:15;;;;;;;;;;;-2.50;99.90;;;;;;5029356;28;19927;-73
2021/12/22 12:32:50;;;;;;;;;;;-2.40;99.90;;;;;;5016922;28;19958;-73
2021/12/22 12:35:23;;;;;;;;;;;-2.40;99.90;;;;;;5016621;28;20416;-72
2021/12/22 12:38:04;;;;;;;;;;;-2.30;99.90;;;;;;5033368;28;19921;-72
2021/12/22 12:40:50;;;;;;;;;;;-2.30;99.90;;;;;;5032291;28;20388;-73
2021/12/22 12:43:17;;;;;;;;;;;-2.30;99.90;;;;;;5015977;28;19921;-74
2021/12/22 12:45:45;;;;;;;;;;;-2.20;99.90;;;;;;5016738;28;19920;-73
2021/12/22 12:48:27;;;;;;;;;;;-2.20;99.90;;;;;;5034007;28;19933;-73
2021/12/22 12:51:13;;;;;;;;;;;-2.20;99.90;;;;;;5032910;28;19920;-73
2021/12/22 12:53:47;;;;;;;;;;;-2.10;99.90;;;;;;5050530;28;19927;-73
2021/12/22 12:56:14;;;;;;;;;;;-2.10;99.90;;;;;;5033137;28;20496;-73
2021/12/22 12:58:53;;;;;;;;;;;-2.20;99.90;;;;;;5051414;28;20606;-73
2021/12/22 13:01:38;;;;;;;;;;;-2.30;99.90;;;;;;5033264;28;19952;-73
2021/12/22 13:04:27;;;;;;;;;;;-2.30;99.90;;;;;;5033345;28;20308;-73
2021/12/22 13:07:01;;;;;;;;;;;-2.20;99.90;;;;;;5050697;28;20381;-73
2021/12/22 13:09:37;;;;;;;;;;;-2.20;99.90;;;;;;5032899;28;19927;-73
2021/12/22 13:18:06;;;;;;;;;;;-2.20;99.90;;;;;;5032709;28;19934;-73
2021/12/22 13:20:40;;;;;;;;;;;-2.10;99.90;;;;;;5048515;28;20365;-73
2021/12/22 13:23:13;;;;;;;;;;;-2.10;99.90;;;;;;5016634;28;19921;-73
2021/12/22 13:25:44;;;;;;;;;;;-2.10;99.90;;;;;;5064046;28;20593;-73
2021/12/22 13:28:17;;;;;;;;;;;-2.20;99.90;;;;;;5053788;28;19920;-73
2021/12/22 13:30:47;;;;;;;;;;;-2.30;99.90;;;;;;5035779;28;19925;-73
2021/12/22 13:33:15;;;;;;;;;;;-2.30;99.90;;;;;;5050871;28;19921;-73
2021/12/22 13:35:54;;;;;;;;;;;-2.40;99.90;;;;;;5035644;28;19921;-73
2021/12/22 13:38:25;;;;;;;;;;;-2.30;99.90;;;;;;5033663;28;19920;-73
2021/12/22 13:40:52;;;;;;;;;;;-2.20;99.90;;;;;;5050451;28;19942;-73
2021/12/22 13:43:23;;;;;;;;;;;-2.20;99.90;;;;;;5035967;28;19921;-73
2021/12/22 13:45:52;;;;;;;;;;;-2.20;99.90;;;;;;5035868;28;19924;-73
2021/12/22 13:48:21;;;;;;;;;;;-2.10;99.90;;;;;;5053503;28;20944;-73
2021/12/22 13:50:48;;;;;;;;;;;-2.20;99.90;;;;;;5035868;28;19920;-73
2021/12/22 13:53:16;;;;;;;;;;;-2.30;99.90;;;;;;5052909;28;20360;-73
2021/12/22 13:55:43;;;;;;;;;;;-2.30;99.90;;;;;;5019324;28;19967;-73
2021/12/22 13:58:33;;;;;;;;;;;-2.30;99.90;;;;;;5052018;28;19944;-73
2021/12/22 14:01:23;;;;;;;;;;;-2.30;99.90;;;;;;5019725;28;19927;-73
2021/12/22 14:03:59;;;;;;;;;;;-2.30;99.90;;;;;;5035340;28;19925;-73
2021/12/22 14:06:35;;;;;;;;;;;-2.30;99.90;;;;;;5019227;28;19925;-73
2021/12/22 14:09:11;;;;;;;;;;;-2.30;99.90;;;;;;5035254;28;19943;-73
2021/12/22 14:11:46;;;;;;;;;;;-2.30;99.90;;;;;;5032921;28;20312;-73
2021/12/22 14:14:31;;;;;;;;;;;-2.30;99.90;;;;;;5053333;28;19943;-73
2021/12/22 14:17:02;;;;;;;;;;;-2.20;99.90;;;;;;5019282;28;19935;-73
2021/12/22 14:19:42;;;;;;;;;;;-2.30;99.90;;;;;;5036267;28;19920;-73
2021/12/22 14:22:15;;;;;;;;;;;-2.30;99.90;;;;;;5052986;28;19921;-74
2021/12/22 14:24:53;;;;;;;;;;;-2.30;99.90;;;;;;5036264;28;19920;-73
2021/12/22 14:27:29;;;;;;;;;;;-2.30;99.90;;;;;;5053171;28;19927;-73
2021/12/22 14:30:02;;;;;;;;;;;-2.30;99.90;;;;;;5052964;28;19927;-73
2021/12/22 14:32:36;;;;;;;;;;;-2.30;99.90;;;;;;5033665;28;19921;-72
2021/12/22 14:35:12;;;;;;;;;;;-2.20;99.90;;;;;;5049693;28;19921;-73
2021/12/22 14:37:44;;;;;;;;;;;-2.30;99.90;;;;;;5017721;28;19927;-72
2021/12/22 14:40:22;;;;;;;;;;;-2.20;99.90;;;;;;5034689;28;19927;-71
2021/12/22 14:42:59;;;;;;;;;;;-2.20;99.90;;;;;;5034558;28;19921;-72
2021/12/22 14:45:32;;;;;;;;;;;-2.20;99.90;;;;;;5067307;28;19921;-71
2021/12/22 14:48:08;;;;;;;;;;;-2.20;99.90;;;;;;5019374;28;19921;-71
2021/12/22 14:50:35;;;;;;;;;;;-2.20;99.90;;;;;;5034914;28;19920;-72
2021/12/22 14:53:09;;;;;;;;;;;-2.20;99.90;;;;;;5034342;28;19931;-72
2021/12/22 14:55:35;;;;;;;;;;;-2.30;99.90;;;;;;5034790;28;19920;-71
2021/12/22 14:58:07;;;;;;;;;;;-2.30;99.90;;;;;;5035241;28;19943;-72
2021/12/22 15:00:35;;;;;;;;;;;-2.30;99.90;;;;;;5052407;28;19978;-72
2021/12/22 15:03:07;;;;;;;;;;;-2.30;99.90;;;;;;5033674;28;19921;-72
2021/12/22 15:05:38;;;;;;;;;;;-2.30;99.90;;;;;;5051398;28;20011;-72
2021/12/22 15:08:11;;;;;;;;;;;-2.30;99.90;;;;;;5017854;28;20007;-71
2021/12/22 15:10:38;;;;;;;;;;;-2.50;99.90;;;;;;5033750;28;20020;-72
2021/12/22 15:13:09;;;;;;;;;;;-2.50;99.90;;;;;;5052008;28;19935;-72
2021/12/22 15:15:41;;;;;;;;;;;-2.60;99.90;;;;;;5029528;28;19931;-72